Time;durP1;ratioP1;P1;durP2;ratioP2;P2;SDS_P1;SDS_P2;PMS_P1;PMS_P2;Temp;Humidity;BMP_temperature;BMP_pressure;BME280_temperature;BME280_humidity;BME280_pressure;Samples;Min_cycle;Max_cycle;Signal;HPM_P1;HPM_P2
2022/11/13 00:02:00;;;;;;;15.63;9.40;;;10.80;82.30;;;;;;5065075;28;20265;-93
2022/11/13 00:04:35;;;;;;;15.03;9.70;;;10.80;82.10;;;;;;5065069;28;20580;-92
2022/11/13 00:07:10;;;;;;;15.20;10.23;;;10.80;82.30;;;;;;5061554;28;20535;-92
2022/11/13 00:09:47;;;;;;;16.07;9.77;;;10.80;82.30;;;;;;5063210;28;20323;-92
2022/11/13 00:12:27;;;;;;;15.20;9.17;;;10.80;82.20;;;;;;5045584;28;20207;-93
2022/11/13 00:15:02;;;;;;;14.40;9.27;;;10.80;82.30;;;;;;5061780;28;20567;-92
2022/11/13 00:20:26;;;;;;;15.23;10.37;;;10.70;82.30;;;;;;5059814;28;20944;-91
2022/11/13 00:22:56;;;;;;;18.93;10.73;;;10.70;82.30;;;;;;5061315;28;20233;-92
2022/11/13 00:25:23;;;;;;;20.53;11.80;;;10.70;82.10;;;;;;5074459;28;20224;-92
2022/11/13 00:30:49;;;;;;;20.10;11.10;;;10.70;82.20;;;;;;5071967;28;20200;-93
2022/11/13 00:33:21;;;;;;;18.23;11.00;;;10.70;82.10;;;;;;5073598;28;20250;-92
2022/11/13 00:36:20;;;;;;;20.13;12.97;;;10.70;82.70;;;;;;5073833;28;20295;-92
2022/11/13 00:39:07;;;;;;;18.83;12.03;;;10.60;83.00;;;;;;5069138;28;20204;-92
2022/11/13 00:41:47;;;;;;;13.80;10.03;;;10.70;83.20;;;;;;5071435;28;20203;-93
2022/11/13 00:44:16;;;;;;;17.97;11.50;;;10.70;83.20;;;;;;5065719;28;20224;-93
2022/11/13 00:46:48;;;;;;;17.37;11.07;;;10.70;82.90;;;;;;5055885;28;20654;-92
2022/11/13 00:49:24;;;;;;;15.37;10.73;;;10.60;83.00;;;;;;5071936;28;20204;-92
2022/11/13 00:51:58;;;;;;;18.37;11.00;;;10.60;83.00;;;;;;5072642;28;20219;-93
2022/11/13 00:54:29;;;;;;;17.20;10.40;;;10.60;83.00;;;;;;5070285;28;20204;-92
2022/11/13 00:56:59;;;;;;;16.57;10.60;;;10.60;83.00;;;;;;5064280;28;20201;-92
2022/11/13 00:59:30;;;;;;;16.63;10.50;;;10.60;83.00;;;;;;5061918;28;20206;-93
2022/11/13 01:02:02;;;;;;;17.10;10.30;;;10.60;83.10;;;;;;5056321;28;20296;-92
2022/11/13 01:04:32;;;;;;;16.03;10.00;;;10.60;83.20;;;;;;5060372;28;20243;-92
2022/11/13 01:07:02;;;;;;;21.00;11.07;;;10.60;83.40;;;;;;5057313;28;20227;-93
2022/11/13 01:09:30;;;;;;;18.43;10.50;;;10.60;83.20;;;;;;5059924;28;20227;-91
2022/11/13 01:12:02;;;;;;;20.43;11.20;;;10.60;83.10;;;;;;5058993;28;20275;-92
2022/11/13 01:14:37;;;;;;;20.73;11.50;;;10.60;83.10;;;;;;5060748;28;20261;-92
2022/11/13 01:17:10;;;;;;;17.87;10.30;;;10.60;82.90;;;;;;5059777;28;20204;-93
2022/11/13 01:19:44;;;;;;;14.13;9.70;;;10.60;83.00;;;;;;5061776;28;20204;-92
2022/11/13 01:22:17;;;;;;;15.93;9.27;;;10.60;83.10;;;;;;5060236;28;20218;-93
2022/11/13 01:24:53;;;;;;;16.20;9.87;;;10.50;82.90;;;;;;5060151;28;20220;-91
2022/11/13 01:27:23;;;;;;;21.47;10.50;;;10.50;82.40;;;;;;5059044;28;20208;-92
2022/11/13 01:29:59;;;;;;;15.27;10.43;;;10.50;82.70;;;;;;5061141;28;20732;-92
2022/11/13 01:32:32;;;;;;;18.40;11.03;;;10.50;82.70;;;;;;5065895;28;20226;-92
2022/11/13 01:35:09;;;;;;;16.17;9.97;;;10.50;82.70;;;;;;5063145;28;20214;-92
2022/11/13 01:37:44;;;;;;;18.43;10.33;;;10.50;82.60;;;;;;5060885;28;20199;-92
2022/11/13 01:40:18;;;;;;;16.00;10.13;;;10.40;82.40;;;;;;5059074;28;20311;-92
2022/11/13 01:42:51;;;;;;;16.47;10.70;;;10.50;82.20;;;;;;5059576;28;20192;-92
2022/11/13 01:46:02;;;;;;;18.27;10.90;;;10.50;82.20;;;;;;5058597;28;20235;-93
2022/11/13 01:48:38;;;;;;;16.77;10.33;;;10.40;82.50;;;;;;5062812;28;20207;-93
2022/11/13 01:51:12;;;;;;;17.80;10.67;;;10.40;82.40;;;;;;5041412;28;20247;-92
2022/11/13 01:53:47;;;;;;;13.27;9.47;;;10.40;82.70;;;;;;5060784;28;20272;-93
2022/11/13 01:56:16;;;;;;;17.90;10.50;;;10.40;82.90;;;;;;5051132;28;20200;-93
2022/11/13 01:59:03;;;;;;;17.83;10.53;;;10.40;82.50;;;;;;5059087;28;20242;-93
2022/11/13 02:01:44;;;;;;;17.27;10.27;;;10.40;82.80;;;;;;5054885;28;20260;-92
2022/11/13 02:04:12;;;;;;;20.30;11.13;;;10.30;82.40;;;;;;5057080;28;20230;-92
2022/11/13 02:06:44;;;;;;;21.07;11.60;;;10.30;82.10;;;;;;5048797;28;20228;-92
2022/11/13 02:09:23;;;;;;;20.73;11.43;;;10.30;82.20;;;;;;5058170;28;20232;-94
2022/11/13 02:11:51;;;;;;;19.53;11.30;;;10.30;82.30;;;;;;5058196;28;20203;-93
2022/11/13 02:14:30;;;;;;;21.73;11.90;;;10.30;82.30;;;;;;5058565;28;20220;-93
2022/11/13 02:17:04;;;;;;;16.97;10.70;;;10.20;82.40;;;;;;5058877;28;20287;-93
2022/11/13 02:19:37;;;;;;;18.57;11.63;;;10.20;82.50;;;;;;5055577;28;20200;-92
2022/11/13 02:22:14;;;;;;;20.33;12.00;;;10.30;82.70;;;;;;5058266;28;20294;-92
2022/11/13 02:24:46;;;;;;;22.03;11.90;;;10.20;82.60;;;;;;5057609;28;20207;-93
2022/11/13 02:27:23;;;;;;;22.40;13.23;;;10.20;82.60;;;;;;5058500;28;20212;-92
2022/11/13 02:29:53;;;;;;;16.17;11.20;;;10.20;82.80;;;;;;5058414;28;20204;-93
2022/11/13 02:32:27;;;;;;;24.70;12.90;;;10.20;82.40;;;;;;5050156;28;20201;-93
2022/11/13 02:34:59;;;;;;;17.43;11.30;;;10.20;83.10;;;;;;5058148;28;20223;-93
2022/11/13 02:37:28;;;;;;;18.80;11.10;;;10.10;82.90;;;;;;5052780;28;20207;-93
2022/11/13 02:40:17;;;;;;;17.30;10.80;;;10.10;82.90;;;;;;5055230;28;20213;-93
2022/11/13 02:42:52;;;;;;;30.80;14.47;;;10.10;83.60;;;;;;5053999;28;20210;-93
2022/11/13 02:45:28;;;;;;;24.50;12.30;;;10.10;83.70;;;;;;5055847;28;20713;-93
2022/11/13 02:47:57;;;;;;;22.03;12.80;;;10.10;83.70;;;;;;5055459;28;20227;-94
2022/11/13 02:50:27;;;;;;;23.57;13.00;;;10.10;83.90;;;;;;5057849;28;20219;-93
2022/11/13 02:52:59;;;;;;;20.77;12.33;;;10.10;84.20;;;;;;5066964;28;20210;-93
2022/11/13 02:55:29;;;;;;;23.17;12.37;;;10.00;84.30;;;;;;5071107;28;20216;-92
2022/11/13 02:57:58;;;;;;;18.83;12.10;;;10.00;84.40;;;;;;5067877;28;20256;-93
2022/11/13 03:03:16;;;;;;;18.47;11.90;;;10.00;84.10;;;;;;5060157;28;20207;-92
2022/11/13 03:05:53;;;;;;;18.10;11.60;;;10.00;84.50;;;;;;5066652;28;20245;-93
2022/11/13 03:08:26;;;;;;;19.83;11.77;;;10.00;84.70;;;;;;5065728;28;20219;-93
2022/11/13 03:13:54;;;;;;;19.57;11.83;;;10.10;85.30;;;;;;5058620;28;20216;-92
2022/11/13 03:16:31;;;;;;;22.33;12.83;;;10.00;84.10;;;;;;5057189;28;20210;-93
2022/11/13 03:19:08;;;;;;;19.17;10.97;;;10.00;83.90;;;;;;5049859;28;20192;-92
2022/11/13 03:21:37;;;;;;;17.57;11.20;;;10.00;84.20;;;;;;5057258;28;20215;-93
2022/11/13 03:24:22;;;;;;;14.77;10.13;;;10.00;83.60;;;;;;5067536;28;20209;-93
2022/11/13 03:27:25;;;;;;;15.07;10.10;;;10.00;83.90;;;;;;5073451;28;20229;-92
2022/11/13 03:30:19;;;;;;;15.87;10.23;;;10.00;83.90;;;;;;5071617;28;20249;-91
2022/11/13 03:33:05;;;;;;;14.57;10.47;;;10.00;83.80;;;;;;5059734;28;20225;-93
2022/11/13 03:35:38;;;;;;;17.90;11.13;;;9.90;84.70;;;;;;5073613;28;20212;-92
2022/11/13 03:41:01;;;;;;;19.20;11.33;;;9.90;84.70;;;;;;5059056;28;20201;-92
2022/11/13 03:43:35;;;;;;;15.23;11.00;;;9.90;85.00;;;;;;5074683;28;20259;-92
2022/11/13 03:46:10;;;;;;;16.43;11.73;;;9.90;85.00;;;;;;5074097;28;20233;-92
2022/11/13 03:48:46;;;;;;;19.43;11.37;;;9.80;85.10;;;;;;5071578;28;20195;-91
2022/11/13 03:51:13;;;;;;;16.60;10.80;;;9.80;85.00;;;;;;5069759;28;20225;-92
2022/11/13 03:59:20;;;;;;;14.17;9.57;;;9.80;85.60;;;;;;5060812;28;20180;-92
2022/11/13 04:02:18;;;;;;;19.47;10.80;;;9.80;85.70;;;;;;5074790;28;20199;-92
2022/11/13 04:04:46;;;;;;;13.77;9.93;;;9.70;86.00;;;;;;5066169;28;20275;-93
2022/11/13 04:07:26;;;;;;;17.23;10.00;;;9.80;85.50;;;;;;5064040;28;20259;-92
2022/11/13 04:10:08;;;;;;;15.30;9.27;;;9.80;86.10;;;;;;5067646;28;20214;-92
2022/11/13 04:12:36;;;;;;;15.20;9.80;;;9.70;86.40;;;;;;5072742;28;20204;-92
2022/11/13 04:15:07;;;;;;;15.70;9.80;;;9.80;86.00;;;;;;5054804;28;20777;-93
2022/11/13 04:17:36;;;;;;;20.60;10.43;;;9.70;86.20;;;;;;5054391;28;20254;-92
2022/11/13 04:20:06;;;;;;;15.60;9.33;;;9.70;86.30;;;;;;5056149;28;20208;-93
2022/11/13 04:22:35;;;;;;;18.70;10.60;;;9.70;86.30;;;;;;5058217;28;20266;-91
2022/11/13 04:25:28;;;;;;;19.37;10.60;;;9.70;86.00;;;;;;5057592;28;20285;-92
2022/11/13 04:27:58;;;;;;;18.53;10.53;;;9.70;86.40;;;;;;5058636;28;20237;-92
2022/11/13 04:30:26;;;;;;;20.40;10.27;;;9.70;86.10;;;;;;5059266;28;20289;-92
2022/11/13 04:32:59;;;;;;;15.30;9.17;;;9.70;86.20;;;;;;5062307;28;20746;-92
2022/11/13 04:35:29;;;;;;;14.57;9.23;;;9.70;86.80;;;;;;5070857;28;20213;-92
2022/11/13 04:38:00;;;;;;;15.23;9.70;;;9.70;86.80;;;;;;5070947;28;20236;-90
2022/11/13 04:40:31;;;;;;;15.33;9.43;;;9.70;87.20;;;;;;5071952;28;20208;-92
2022/11/13 04:42:58;;;;;;;13.33;9.23;;;9.70;87.20;;;;;;5072816;28;20202;-92
2022/11/13 04:45:29;;;;;;;11.20;7.83;;;9.70;87.50;;;;;;5077076;28;20192;-92
2022/11/13 04:47:59;;;;;;;12.83;10.03;;;9.70;87.80;;;;;;5076806;28;20211;-91
2022/11/13 04:50:34;;;;;;;22.73;10.83;;;9.70;87.80;;;;;;5076666;28;20266;-91
2022/11/13 04:53:10;;;;;;;11.87;8.63;;;9.70;88.30;;;;;;5076637;28;20209;-91
2022/11/13 04:55:43;;;;;;;20.87;10.83;;;9.70;88.50;;;;;;5073223;28;20203;-92
2022/11/13 04:58:11;;;;;;;17.57;9.67;;;9.70;88.50;;;;;;5053431;28;20299;-92
2022/11/13 05:00:40;;;;;;;22.27;10.83;;;9.70;88.50;;;;;;5055563;28;20204;-92
2022/11/13 05:03:10;;;;;;;16.60;9.77;;;9.80;88.60;;;;;;5058352;28;20250;-93
2022/11/13 05:05:38;;;;;;;22.73;10.40;;;9.70;89.00;;;;;;5058938;28;20247;-91
2022/11/13 05:08:15;;;;;;;18.47;9.77;;;9.80;88.60;;;;;;5068976;28;20227;-90
2022/11/13 05:10:51;;;;;;;15.43;8.73;;;9.80;88.60;;;;;;5062693;28;20203;-92
2022/11/13 05:13:22;;;;;;;22.57;11.07;;;9.80;88.60;;;;;;5055834;28;20203;-93
2022/11/13 05:16:00;;;;;;;22.07;10.50;;;9.80;88.60;;;;;;5057597;28;20258;-93
2022/11/13 05:18:39;;;;;;;14.07;8.70;;;9.80;89.30;;;;;;5063696;28;20206;-92
2022/11/13 05:21:23;;;;;;;15.87;9.23;;;9.80;89.10;;;;;;5075623;28;20204;-93
2022/11/13 05:23:55;;;;;;;10.50;8.07;;;9.80;89.10;;;;;;5077708;28;20208;-92
2022/11/13 05:26:28;;;;;;;11.73;7.83;;;9.90;89.10;;;;;;5077434;28;20241;-92
2022/11/13 05:28:59;;;;;;;14.50;8.13;;;9.90;89.20;;;;;;5072958;28;20993;-91
2022/11/13 05:31:27;;;;;;;17.70;9.33;;;9.90;89.20;;;;;;5063495;28;20204;-91
2022/11/13 05:34:05;;;;;;;17.13;8.90;;;9.90;88.70;;;;;;5064449;28;20226;-92
2022/11/13 05:36:35;;;;;;;21.03;10.13;;;9.90;89.20;;;;;;5064280;28;20200;-92
2022/11/13 05:39:04;;;;;;;15.73;9.67;;;9.90;88.70;;;;;;5059711;28;20212;-92
2022/11/13 05:41:39;;;;;;;19.20;9.97;;;10.00;87.40;;;;;;5048860;28;20195;-92
2022/11/13 05:44:11;;;;;;;18.73;9.67;;;10.00;87.60;;;;;;5060375;28;20348;-93
2022/11/13 05:46:39;;;;;;;17.43;9.10;;;10.00;87.40;;;;;;5059221;28;20256;-92
2022/11/13 05:49:11;;;;;;;15.73;9.17;;;10.00;87.20;;;;;;5058927;28;20207;-93
2022/11/13 05:51:40;;;;;;;17.73;9.83;;;10.00;87.50;;;;;;5059864;28;20200;-92
2022/11/13 05:54:11;;;;;;;21.90;10.97;;;10.00;87.10;;;;;;5058716;28;20268;-91
2022/11/13 05:56:39;;;;;;;15.17;8.70;;;10.00;87.30;;;;;;5054789;28;20303;-92
2022/11/13 05:59:09;;;;;;;14.73;8.97;;;10.00;87.50;;;;;;5058336;28;20309;-92
2022/11/13 06:01:38;;;;;;;16.10;9.60;;;10.00;87.60;;;;;;5057840;28;20278;-93
2022/11/13 06:04:11;;;;;;;19.20;10.37;;;10.00;87.40;;;;;;5057005;28;20809;-92
2022/11/13 06:06:41;;;;;;;19.47;9.83;;;10.00;87.60;;;;;;5050324;28;20337;-92
2022/11/13 06:09:11;;;;;;;20.50;10.70;;;10.00;87.60;;;;;;5054389;28;20632;-92
2022/11/13 06:11:38;;;;;;;19.37;11.03;;;10.00;87.50;;;;;;5056591;28;20199;-92
2022/11/13 06:14:05;;;;;;;21.00;11.17;;;10.00;87.50;;;;;;5059088;28;20204;-92
2022/11/13 06:16:36;;;;;;;16.60;10.17;;;10.10;87.50;;;;;;5055020;28;20227;-92
2022/11/13 06:19:09;;;;;;;20.00;10.93;;;10.00;87.60;;;;;;5057722;28;20200;-93
2022/11/13 06:21:45;;;;;;;20.73;11.00;;;10.00;87.60;;;;;;5057557;28;20224;-92
2022/11/13 06:24:14;;;;;;;22.97;11.20;;;10.10;87.70;;;;;;5059856;28;20296;-92
2022/11/13 06:26:43;;;;;;;22.60;11.57;;;10.00;87.20;;;;;;5057157;28;20255;-91
2022/11/13 06:29:12;;;;;;;25.17;12.60;;;10.10;87.40;;;;;;5055727;28;20199;-92
2022/11/13 06:31:47;;;;;;;22.00;11.80;;;10.10;87.40;;;;;;5054020;28;20207;-92
2022/11/13 06:34:14;;;;;;;21.27;11.63;;;10.10;87.50;;;;;;5053047;28;20195;-92
2022/11/13 06:36:43;;;;;;;20.70;11.07;;;10.00;86.90;;;;;;5051637;28;21534;-92
2022/11/13 06:39:13;;;;;;;23.50;12.83;;;10.00;87.20;;;;;;5060546;28;20219;-92
2022/11/13 06:41:56;;;;;;;21.13;12.13;;;10.00;87.20;;;;;;5062457;28;20214;-92
2022/11/13 06:44:24;;;;;;;18.73;12.00;;;10.00;87.40;;;;;;5058600;28;20192;-93
2022/11/13 06:46:59;;;;;;;17.57;10.87;;;10.00;87.00;;;;;;5056823;28;20216;-92
2022/11/13 06:49:27;;;;;;;18.13;11.40;;;10.00;87.00;;;;;;5055616;28;20242;-92
2022/11/13 06:51:59;;;;;;;21.40;12.37;;;10.00;86.80;;;;;;5055697;28;20204;-93
2022/11/13 06:54:26;;;;;;;23.70;12.40;;;10.00;87.20;;;;;;5057617;28;20208;-92
2022/11/13 06:56:54;;;;;;;23.50;12.43;;;9.90;88.00;;;;;;5053430;28;20224;-92
2022/11/13 06:59:31;;;;;;;19.20;12.60;;;10.00;86.80;;;;;;5055894;28;20207;-93
2022/11/13 07:02:00;;;;;;;22.50;12.90;;;10.00;87.10;;;;;;5052873;28;20226;-90
2022/11/13 07:04:27;;;;;;;31.73;14.97;;;9.90;87.80;;;;;;5052521;28;20220;-91
2022/11/13 07:06:54;;;;;;;24.90;14.27;;;10.00;86.60;;;;;;5053393;28;20216;-90
2022/11/13 07:09:24;;;;;;;25.53;14.03;;;9.90;87.50;;;;;;5046754;28;20207;-91
2022/11/13 07:11:54;;;;;;;23.10;14.23;;;9.90;87.80;;;;;;5060454;28;20207;-91
2022/11/13 07:14:22;;;;;;;20.07;12.40;;;9.90;87.40;;;;;;5054389;28;20214;-90
2022/11/13 07:16:49;;;;;;;26.30;14.17;;;9.90;87.50;;;;;;5056433;28;20206;-91
2022/11/13 07:19:17;;;;;;;26.70;16.33;;;9.90;87.50;;;;;;5055431;28;20208;-91
2022/11/13 07:21:45;;;;;;;29.90;16.53;;;9.90;87.70;;;;;;5057555;28;20208;-92
2022/11/13 07:24:13;;;;;;;29.03;16.10;;;9.90;88.50;;;;;;5057185;28;20207;-91
2022/11/13 07:26:45;;;;;;;24.23;15.30;;;9.90;88.00;;;;;;5058763;28;20231;-89
2022/11/13 07:29:24;;;;;;;28.53;15.57;;;9.80;88.20;;;;;;5054892;28;20236;-92
2022/11/13 07:31:52;;;;;;;31.97;16.10;;;9.80;88.60;;;;;;5052208;28;20200;-91
2022/11/13 07:34:36;;;;;;;27.47;14.73;;;9.80;88.20;;;;;;5055036;28;20216;-91
2022/11/13 07:37:05;;;;;;;23.30;14.63;;;9.80;88.60;;;;;;5052609;28;20208;-92
2022/11/13 07:39:33;;;;;;;27.90;15.33;;;9.80;88.50;;;;;;5055544;28;20301;-91
2022/11/13 07:42:04;;;;;;;30.23;14.67;;;9.80;88.60;;;;;;5051311;28;20203;-91
2022/11/13 07:44:32;;;;;;;32.10;15.77;;;9.80;88.60;;;;;;5050160;28;20239;-91
2022/11/13 07:47:01;;;;;;;23.10;13.30;;;9.90;88.60;;;;;;5052890;28;20613;-91
2022/11/13 07:49:29;;;;;;;22.37;12.60;;;9.80;88.60;;;;;;5053177;28;20612;-89
2022/11/13 07:51:56;;;;;;;22.97;11.67;;;9.90;88.70;;;;;;5052246;28;20206;-91
2022/11/13 07:54:24;;;;;;;25.87;12.20;;;9.80;88.60;;;;;;5051215;28;20234;-91
2022/11/13 07:56:51;;;;;;;18.17;10.33;;;9.90;88.70;;;;;;5055465;28;20303;-92
2022/11/13 07:59:20;;;;;;;16.27;9.83;;;9.90;88.70;;;;;;5056127;28;20196;-91
2022/11/13 08:01:47;;;;;;;17.53;9.73;;;9.80;88.90;;;;;;5053567;28;20230;-92
2022/11/13 08:04:15;;;;;;;22.27;10.67;;;9.90;88.70;;;;;;5050569;28;20267;-91
2022/11/13 08:06:45;;;;;;;21.10;10.27;;;9.90;88.70;;;;;;5050474;28;20326;-91
2022/11/13 08:09:13;;;;;;;18.53;10.00;;;9.90;89.30;;;;;;5052988;28;20204;-91
2022/11/13 08:11:40;;;;;;;17.23;9.57;;;9.90;89.20;;;;;;5051916;28;20226;-91
2022/11/13 08:14:07;;;;;;;24.37;11.27;;;9.90;89.40;;;;;;5050919;28;20714;-91
2022/11/13 08:16:40;;;;;;;26.03;10.90;;;9.90;89.80;;;;;;5048002;28;20639;-91
2022/11/13 08:19:07;;;;;;;20.30;10.20;;;9.90;90.10;;;;;;5053127;28;20558;-91
2022/11/13 08:21:35;;;;;;;18.10;9.90;;;9.90;90.20;;;;;;5053034;28;20628;-91
2022/11/13 08:24:02;;;;;;;16.83;9.87;;;10.00;90.00;;;;;;5056095;28;20224;-90
2022/11/13 08:26:29;;;;;;;19.07;10.03;;;10.00;90.00;;;;;;5055196;28;20247;-91
2022/11/13 08:29:01;;;;;;;19.27;10.37;;;10.00;90.20;;;;;;5053449;28;20283;-91
2022/11/13 08:31:31;;;;;;;22.37;11.07;;;10.00;90.60;;;;;;5052818;28;20203;-91
2022/11/13 08:34:06;;;;;;;18.87;9.40;;;10.10;90.60;;;;;;5054561;28;20221;-92
2022/11/13 08:36:43;;;;;;;19.13;9.80;;;10.20;91.00;;;;;;5053726;28;20283;-91
2022/11/13 08:39:10;;;;;;;15.70;9.33;;;10.20;91.20;;;;;;5056560;28;20206;-91
2022/11/13 08:41:37;;;;;;;14.57;8.87;;;10.30;91.10;;;;;;5056810;28;20234;-91
2022/11/13 08:44:06;;;;;;;15.50;9.43;;;10.30;91.20;;;;;;5056652;28;20247;-92
2022/11/13 08:46:36;;;;;;;25.27;11.17;;;10.40;91.40;;;;;;5055385;28;20200;-91
2022/11/13 08:49:12;;;;;;;17.23;10.07;;;10.50;91.60;;;;;;5055641;28;20220;-91
2022/11/13 08:51:40;;;;;;;20.60;10.60;;;10.50;91.70;;;;;;5056295;28;20223;-91
2022/11/13 08:54:07;;;;;;;20.93;10.60;;;10.50;91.40;;;;;;5055218;28;20211;-91
2022/11/13 08:56:37;;;;;;;23.40;12.27;;;10.60;91.40;;;;;;5055476;28;20295;-92
2022/11/13 08:59:07;;;;;;;17.43;10.20;;;10.70;91.50;;;;;;5056246;28;20278;-91
2022/11/13 09:01:37;;;;;;;19.27;10.33;;;10.70;91.40;;;;;;5055722;28;20204;-91
2022/11/13 09:04:04;;;;;;;25.23;11.60;;;10.80;91.60;;;;;;5055447;28;20474;-91
2022/11/13 09:06:34;;;;;;;25.37;12.30;;;10.90;91.60;;;;;;5053628;28;20247;-91
2022/11/13 09:09:06;;;;;;;22.27;11.43;;;10.90;91.70;;;;;;5054852;28;20200;-92
2022/11/13 09:11:36;;;;;;;16.73;10.93;;;11.00;91.90;;;;;;5056269;28;20197;-91
2022/11/13 09:14:08;;;;;;;18.03;11.07;;;11.10;91.70;;;;;;5054230;28;20208;-92
2022/11/13 09:16:35;;;;;;;19.37;12.47;;;11.10;91.80;;;;;;5054077;28;20319;-91
2022/11/13 09:19:04;;;;;;;16.13;10.30;;;11.20;91.60;;;;;;5055208;28;20301;-91
2022/11/13 09:21:37;;;;;;;20.23;11.33;;;11.30;91.80;;;;;;5054082;28;20967;-92
2022/11/13 09:24:05;;;;;;;28.77;11.60;;;11.30;91.80;;;;;;5049377;28;20281;-91
2022/11/13 09:26:35;;;;;;;16.30;9.87;;;11.40;91.50;;;;;;5050737;28;20208;-92
2022/11/13 09:29:05;;;;;;;17.37;11.03;;;11.50;91.70;;;;;;5052814;28;20215;-91
2022/11/13 09:31:32;;;;;;;20.33;10.87;;;11.50;91.60;;;;;;5049905;28;20283;-91
2022/11/13 09:33:59;;;;;;;16.73;10.33;;;11.60;91.90;;;;;;5053815;28;20283;-92
2022/11/13 09:36:27;;;;;;;21.47;11.80;;;11.60;91.60;;;;;;5055179;28;20743;-92
2022/11/13 09:38:58;;;;;;;17.97;11.47;;;11.70;91.70;;;;;;5055823;28;20247;-91
2022/11/13 09:41:31;;;;;;;17.97;10.93;;;11.80;91.90;;;;;;5056374;28;20207;-91
2022/11/13 09:44:05;;;;;;;19.97;11.50;;;11.80;91.90;;;;;;5055644;28;20230;-91
2022/11/13 09:46:38;;;;;;;16.80;11.17;;;11.80;91.90;;;;;;5064608;28;20204;-91
2022/11/13 09:49:15;;;;;;;18.77;10.83;;;11.90;92.10;;;;;;5063523;28;20220;-92
2022/11/13 09:51:45;;;;;;;19.27;11.43;;;12.00;92.20;;;;;;5059084;28;20247;-91
2022/11/13 09:54:17;;;;;;;22.80;12.87;;;12.10;92.00;;;;;;5063816;28;20289;-92
2022/11/13 09:56:57;;;;;;;20.90;11.40;;;12.20;92.10;;;;;;5061584;28;20704;-92
2022/11/13 09:59:32;;;;;;;23.03;12.07;;;12.20;92.20;;;;;;5061871;28;20645;-92
2022/11/13 10:02:10;;;;;;;18.13;11.30;;;12.30;92.00;;;;;;5056921;28;20200;-92
2022/11/13 10:04:56;;;;;;;25.20;13.67;;;12.40;92.00;;;;;;5052182;28;20233;-90
2022/11/13 10:07:43;;;;;;;18.03;10.77;;;12.40;91.90;;;;;;5051743;28;20225;-91
2022/11/13 10:10:52;;;;;;;21.00;11.00;;;12.50;92.00;;;;;;5052619;28;20262;-91
2022/11/13 10:13:28;;;;;;;21.27;13.17;;;12.60;92.20;;;;;;5049719;28;20207;-91
2022/11/13 10:16:06;;;;;;;19.60;12.47;;;12.70;92.20;;;;;;5053458;28;20234;-91
2022/11/13 10:18:38;;;;;;;29.00;13.20;;;12.70;92.20;;;;;;5052304;28;20249;-91
2022/11/13 10:21:19;;;;;;;16.53;11.13;;;12.90;92.30;;;;;;5056070;28;20258;-91
2022/11/13 10:23:54;;;;;;;19.80;12.43;;;12.90;92.40;;;;;;5054741;28;20738;-92
2022/11/13 10:26:27;;;;;;;19.50;11.67;;;13.00;92.30;;;;;;5038509;28;20217;-91
2022/11/13 10:29:01;;;;;;;15.50;10.70;;;13.10;92.30;;;;;;5041711;28;20959;-92
2022/11/13 10:31:42;;;;;;;20.87;12.23;;;13.20;92.50;;;;;;5058413;28;20230;-91
2022/11/13 10:34:12;;;;;;;18.73;11.60;;;13.20;92.40;;;;;;5055445;28;20237;-91
2022/11/13 10:36:49;;;;;;;17.23;11.73;;;13.30;92.40;;;;;;5057944;28;20219;-91
2022/11/13 10:39:17;;;;;;;21.37;12.43;;;13.40;92.40;;;;;;5046380;28;20211;-90
2022/11/13 10:41:56;;;;;;;13.17;10.40;;;13.50;91.90;;;;;;5061670;28;20231;-92
2022/11/13 10:44:35;;;;;;;17.37;11.33;;;13.60;91.60;;;;;;5057334;28;20994;-91
2022/11/13 10:47:09;;;;;;;15.90;11.67;;;13.70;91.40;;;;;;5059556;28;20213;-93
2022/11/13 10:49:36;;;;;;;18.63;12.37;;;13.80;91.20;;;;;;5063229;28;20259;-91
2022/11/13 10:52:16;;;;;;;19.17;13.47;;;13.80;91.00;;;;;;5062222;28;20221;-92
2022/11/13 10:54:45;;;;;;;17.23;13.07;;;13.90;90.90;;;;;;5067704;28;20296;-92
2022/11/13 10:57:32;;;;;;;20.47;14.33;;;13.90;90.60;;;;;;5052353;28;20215;-91
2022/11/13 11:00:03;;;;;;;21.53;15.30;;;14.00;90.40;;;;;;5066166;28;20207;-91
2022/11/13 11:02:31;;;;;;;20.10;13.63;;;14.00;90.30;;;;;;5067827;28;20232;-93
2022/11/13 11:05:06;;;;;;;30.67;15.50;;;14.00;90.20;;;;;;5065519;28;20204;-91
2022/11/13 11:07:40;;;;;;;21.23;14.77;;;14.10;90.20;;;;;;5067349;28;20234;-91
2022/11/13 11:10:23;;;;;;;19.37;14.47;;;14.10;90.20;;;;;;5058383;28;20238;-91
2022/11/13 11:12:59;;;;;;;19.90;14.93;;;14.10;90.20;;;;;;5059078;28;20204;-91
2022/11/13 11:15:35;;;;;;;18.67;15.10;;;14.10;90.20;;;;;;5061460;28;20212;-92
2022/11/13 11:18:07;;;;;;;19.20;14.60;;;14.10;90.20;;;;;;5070039;28;20219;-91
2022/11/13 11:20:44;;;;;;;22.27;15.50;;;14.10;90.20;;;;;;5064956;28;20273;-92
2022/11/13 11:23:22;;;;;;;18.93;13.90;;;14.20;90.30;;;;;;5065785;28;20202;-92
2022/11/13 11:25:55;;;;;;;19.83;15.80;;;14.20;90.50;;;;;;5061745;28;20202;-91
2022/11/13 11:28:32;;;;;;;20.13;14.80;;;14.20;89.90;;;;;;5047852;28;20685;-92
2022/11/13 11:31:11;;;;;;;22.60;14.67;;;14.20;90.00;;;;;;5054205;28;20218;-92
2022/11/13 11:33:55;;;;;;;25.10;16.60;;;14.20;89.80;;;;;;5054502;28;20249;-91
2022/11/13 11:36:29;;;;;;;27.47;15.40;;;14.20;89.80;;;;;;5053606;28;20227;-91
2022/11/13 11:39:07;;;;;;;22.10;15.00;;;14.30;90.10;;;;;;5053112;28;20275;-92
2022/11/13 11:41:40;;;;;;;23.20;16.07;;;14.30;89.90;;;;;;5054662;28;20210;-92
2022/11/13 11:44:19;;;;;;;22.07;15.97;;;14.30;90.00;;;;;;5054770;28;20206;-92
2022/11/13 11:46:47;;;;;;;22.23;16.30;;;14.30;90.00;;;;;;5055774;28;20230;-92
2022/11/13 11:49:14;;;;;;;22.17;15.67;;;14.40;90.10;;;;;;5058941;28;20228;-92
2022/11/13 11:51:54;;;;;;;20.90;15.23;;;14.40;90.30;;;;;;5058457;28;20219;-91
2022/11/13 11:54:36;;;;;;;22.87;15.43;;;14.40;90.40;;;;;;5055970;28;20209;-93
2022/11/13 11:57:22;;;;;;;19.53;14.47;;;14.40;90.50;;;;;;5057826;28;20208;-93
2022/11/13 12:00:04;;;;;;;19.20;14.70;;;14.40;90.50;;;;;;5057859;28;20199;-92
2022/11/13 12:03:23;;;;;;;26.83;16.80;;;14.50;90.40;;;;;;5058823;28;20253;-93
2022/11/13 12:06:02;;;;;;;29.73;18.07;;;14.50;90.60;;;;;;5030280;28;20246;-92
2022/11/13 12:08:39;;;;;;;19.17;14.97;;;14.60;90.90;;;;;;5056754;28;20215;-93
2022/11/13 12:11:14;;;;;;;20.00;15.87;;;14.70;91.50;;;;;;5045274;28;20207;-92
2022/11/13 12:13:51;;;;;;;21.30;15.13;;;14.70;91.80;;;;;;5056168;28;20218;-93
2022/11/13 12:16:30;;;;;;;18.57;14.37;;;14.90;91.90;;;;;;5057108;28;20192;-93
2022/11/13 12:19:04;;;;;;;17.23;14.37;;;15.00;92.10;;;;;;5057398;28;20212;-92
2022/11/13 12:21:49;;;;;;;22.47;15.73;;;15.20;92.50;;;;;;5055850;28;20630;-93
2022/11/13 12:24:46;;;;;;;17.67;13.43;;;15.40;92.70;;;;;;5056493;28;20258;-93
2022/11/13 12:27:31;;;;;;;16.33;13.53;;;15.60;93.40;;;;;;5060408;28;20200;-93
2022/11/13 12:30:11;;;;;;;14.73;12.87;;;15.80;92.90;;;;;;5066697;28;20207;-93
2022/11/13 12:33:06;;;;;;;17.77;14.47;;;16.10;93.20;;;;;;5068244;28;20235;-93
2022/11/13 12:35:33;;;;;;;20.73;15.53;;;16.40;92.80;;;;;;5068941;28;20211;-93
2022/11/13 12:38:08;;;;;;;19.33;15.07;;;16.60;93.40;;;;;;5071498;28;20204;-93
2022/11/13 12:40:47;;;;;;;18.30;13.27;;;16.80;92.60;;;;;;5071502;28;20206;-91
2022/11/13 12:43:33;;;;;;;20.57;16.87;;;17.20;93.40;;;;;;5060330;28;20222;-90
2022/11/13 12:46:09;;;;;;;19.10;14.47;;;17.40;91.80;;;;;;5059474;28;20541;-91
2022/11/13 12:48:44;;;;;;;18.17;14.00;;;17.70;91.90;;;;;;5058324;28;20253;-92
2022/11/13 12:51:19;;;;;;;16.63;12.93;;;18.00;92.40;;;;;;5057740;28;20210;-91
2022/11/13 12:53:57;;;;;;;20.27;14.33;;;18.20;90.30;;;;;;5057502;28;20215;-91
2022/11/13 12:56:38;;;;;;;16.87;14.03;;;18.40;90.80;;;;;;5057535;28;20211;-91
2022/11/13 12:59:39;;;;;;;19.17;13.90;;;18.70;86.50;;;;;;5056688;28;20215;-92
2022/11/13 13:02:33;;;;;;;18.70;14.40;;;18.90;85.50;;;;;;5055308;28;20248;-92
2022/11/13 13:05:37;;;;;;;18.23;13.80;;;19.10;87.90;;;;;;5052410;28;20649;-92
2022/11/13 13:08:53;;;;;;;18.20;13.43;;;19.30;82.80;;;;;;5052048;28;20234;-92
2022/11/13 13:11:33;;;;;;;18.03;14.47;;;19.60;80.60;;;;;;5010018;28;20533;-92
2022/11/13 13:14:21;;;;;;;15.70;12.63;;;19.70;80.80;;;;;;5047342;28;20764;-92
2022/11/13 13:16:52;;;;;;;20.80;14.20;;;19.90;78.10;;;;;;5054928;28;20292;-92
2022/11/13 13:19:29;;;;;;;20.30;15.20;;;20.00;78.50;;;;;;5050313;28;20207;-92
2022/11/13 13:22:01;;;;;;;19.57;14.90;;;20.10;77.10;;;;;;5058141;28;20210;-91
2022/11/13 13:24:34;;;;;;;17.57;14.13;;;20.10;77.40;;;;;;5055207;28;20202;-92
2022/11/13 13:27:01;;;;;;;22.67;16.87;;;20.20;76.40;;;;;;5054778;28;20204;-93